FIN19 EFHK-KDFW
Flight info
| Callsign | FIN19 |
|---|---|
| Flight time | N/A |
| Altitude | 34000 |
| Route | NEPEK Y375 UXADA DCT BAKLA DCT OLGUV DCT LEPTI DCT 64N000E/M084F340 64N010W 6330N02000W/M085F360 63N030W 62N040W 60N050W DCT TOXIT/N0483F360 DCT LAKES DCT 5625N07000W 52N080W/N0480F380 DCT KP90M DCT KG72K DCT KK57I DCT SGF DCT RZC DCT RRNET SEEVR4 |
| Aircraft | A359/H-SDE2E3GHIJ3J4J5LM1ORWXY/LB1D1 |
Departure
| Time | 2026-04-24 09:56 |
|---|---|
| Airport | Helsinki Vantaa Airport (EFHK) |
Arrival
| Time | N/A |
|---|---|
| Airport | Dallas Fort Worth International Airport (KDFW) |
| Time | Latitude | Longitude | Altitude | Speed | Heading |
|---|---|---|---|---|---|
| 2026-04-24 09:10 | 60.31430 | 24.95980 | 170 ft | 0 kts | 342° |
| 2026-04-24 09:40 | 60.31425 | 24.95983 | 170 ft | 1 kts | 342° |
| 2026-04-24 09:41 | 60.31419 | 24.95987 | 170 ft | 1 kts | 342° |
| 2026-04-24 09:41 | 60.31409 | 24.95993 | 170 ft | 3 kts | 342° |
| 2026-04-24 09:41 | 60.31391 | 24.96006 | 170 ft | 3 kts | 330° |
| 2026-04-24 09:41 | 60.31374 | 24.96030 | 170 ft | 3 kts | 310° |
| 2026-04-24 09:42 | 60.31364 | 24.96063 | 170 ft | 3 kts | 290° |
| 2026-04-24 09:42 | 60.31358 | 24.96099 | 169 ft | 3 kts | 291° |
| 2026-04-24 09:42 | 60.31349 | 24.96133 | 169 ft | 3 kts | 308° |
| 2026-04-24 09:42 | 60.31340 | 24.96155 | 169 ft | 0 kts | 315° |
| 2026-04-24 09:49 | 60.31340 | 24.96153 | 169 ft | 0 kts | 315° |
| 2026-04-24 09:50 | 60.31350 | 24.96132 | 169 ft | 5 kts | 309° |
| 2026-04-24 09:50 | 60.31350 | 24.96054 | 169 ft | 6 kts | 250° |
| 2026-04-24 09:50 | 60.31329 | 24.95990 | 169 ft | 6 kts | 233° |
| 2026-04-24 09:50 | 60.31298 | 24.95911 | 169 ft | 8 kts | 231° |
| 2026-04-24 09:51 | 60.31256 | 24.95814 | 169 ft | 10 kts | 227° |
| 2026-04-24 09:51 | 60.31203 | 24.95696 | 169 ft | 12 kts | 228° |
| 2026-04-24 09:51 | 60.31168 | 24.95554 | 169 ft | 11 kts | 271° |
| 2026-04-24 09:51 | 60.31205 | 24.95440 | 169 ft | 10 kts | 314° |
| 2026-04-24 09:52 | 60.31255 | 24.95347 | 169 ft | 10 kts | 317° |
| 2026-04-24 09:52 | 60.31308 | 24.95250 | 169 ft | 11 kts | 317° |
| 2026-04-24 09:52 | 60.31360 | 24.95152 | 169 ft | 10 kts | 317° |
| 2026-04-24 09:52 | 60.31414 | 24.95048 | 169 ft | 11 kts | 315° |
| 2026-04-24 09:53 | 60.31441 | 24.94918 | 169 ft | 9 kts | 261° |
| 2026-04-24 09:53 | 60.31404 | 24.94802 | 169 ft | 11 kts | 227° |
| 2026-04-24 09:53 | 60.31348 | 24.94683 | 168 ft | 13 kts | 226° |
| 2026-04-24 09:53 | 60.31284 | 24.94545 | 168 ft | 14 kts | 227° |
| 2026-04-24 09:54 | 60.31214 | 24.94390 | 168 ft | 16 kts | 229° |
| 2026-04-24 09:54 | 60.31137 | 24.94220 | 168 ft | 17 kts | 227° |
| 2026-04-24 09:54 | 60.31055 | 24.94036 | 168 ft | 18 kts | 228° |
| 2026-04-24 09:54 | 60.30981 | 24.93827 | 168 ft | 18 kts | 259° |
| 2026-04-24 09:55 | 60.31012 | 24.93702 | 168 ft | 15 kts | 309° |
| 2026-04-24 09:55 | 60.31099 | 24.93621 | 166 ft | 14 kts | 5° |
| 2026-04-24 09:55 | 60.31195 | 24.93796 | 167 ft | 19 kts | 47° |
| 2026-04-24 09:55 | 60.31429 | 24.94291 | 168 ft | 82 kts | 48° |
| 2026-04-24 09:56 | 60.31970 | 24.95482 | 168 ft | 143 kts | 46° |
| 2026-04-24 09:56 | 60.32457 | 24.96605 | 172 ft | 178 kts | 52° |
| 2026-04-24 09:56 | 60.33261 | 24.98696 | 590 ft | 195 kts | 46° |
| 2026-04-24 09:56 | 60.34427 | 25.01643 | 1545 ft | 213 kts | 46° |
| 2026-04-24 09:57 | 60.35412 | 25.03959 | 2216 ft | 223 kts | 41° |
| 2026-04-24 09:57 | 60.36168 | 25.05463 | 2489 ft | 232 kts | 39° |
| 2026-04-24 09:57 | 60.37369 | 25.07769 | 3101 ft | 239 kts | 40° |
| 2026-04-24 09:57 | 60.38548 | 25.10172 | 3718 ft | 243 kts | 42° |
| 2026-04-24 09:58 | 60.39870 | 25.12285 | 4330 ft | 244 kts | 22° |
| 2026-04-24 09:58 | 60.41466 | 25.13005 | 4824 ft | 242 kts | 1° |
| 2026-04-24 09:58 | 60.43173 | 25.13050 | 4984 ft | 244 kts | 358° |
| 2026-04-24 09:58 | 60.44849 | 25.13046 | 4990 ft | 244 kts | 359° |
| 2026-04-24 09:59 | 60.46564 | 25.13084 | 4993 ft | 244 kts | 360° |
| 2026-04-24 09:59 | 60.48263 | 25.13108 | 5221 ft | 243 kts | 358° |
| 2026-04-24 09:59 | 60.49924 | 25.12546 | 5740 ft | 245 kts | 340° |
| 2026-04-24 09:59 | 60.51390 | 25.10776 | 6494 ft | 246 kts | 320° |
| 2026-04-24 10:00 | 60.52515 | 25.08147 | 7223 ft | 249 kts | 310° |
| 2026-04-24 10:00 | 60.53544 | 25.05318 | 7858 ft | 250 kts | 310° |
| 2026-04-24 10:00 | 60.54594 | 25.02427 | 8553 ft | 251 kts | 310° |
| 2026-04-24 10:00 | 60.55624 | 24.99604 | 9242 ft | 252 kts | 310° |
| 2026-04-24 10:01 | 60.56672 | 24.96741 | 9921 ft | 253 kts | 311° |
| 2026-04-24 10:01 | 60.57736 | 24.93851 | 10393 ft | 260 kts | 311° |
| 2026-04-24 10:01 | 60.58850 | 24.90840 | 10676 ft | 273 kts | 311° |
| 2026-04-24 10:01 | 60.60018 | 24.87675 | 10948 ft | 286 kts | 311° |
| 2026-04-24 10:02 | 60.61232 | 24.84372 | 11232 ft | 298 kts | 311° |
| 2026-04-24 10:02 | 60.62506 | 24.80897 | 11522 ft | 310 kts | 310° |
| 2026-04-24 10:02 | 60.63818 | 24.77310 | 11786 ft | 321 kts | 310° |
| 2026-04-24 10:02 | 60.65166 | 24.73621 | 12148 ft | 328 kts | 310° |
| 2026-04-24 10:03 | 60.66529 | 24.69879 | 12632 ft | 331 kts | 310° |
| 2026-04-24 10:03 | 60.67905 | 24.66095 | 13170 ft | 332 kts | 311° |
| 2026-04-24 10:03 | 60.69281 | 24.62306 | 13528 ft | 334 kts | 311° |
| 2026-04-24 10:03 | 60.70660 | 24.58502 | 14093 ft | 336 kts | 311° |
| 2026-04-24 10:04 | 60.72053 | 24.54659 | 14552 ft | 338 kts | 311° |
| 2026-04-24 10:04 | 60.73359 | 24.50602 | 14987 ft | 343 kts | 304° |
| 2026-04-24 10:04 | 60.74299 | 24.45999 | 15420 ft | 353 kts | 292° |
| 2026-04-24 10:04 | 60.74821 | 24.41064 | 15868 ft | 359 kts | 287° |
| 2026-04-24 10:05 | 60.75191 | 24.35995 | 16285 ft | 363 kts | 285° |
| 2026-04-24 10:05 | 60.75500 | 24.30833 | 16711 ft | 366 kts | 284° |
| 2026-04-24 10:05 | 60.75790 | 24.25647 | 17132 ft | 368 kts | 284° |
| 2026-04-24 10:05 | 60.76084 | 24.20425 | 17541 ft | 370 kts | 284° |
| 2026-04-24 10:06 | 60.76391 | 24.15146 | 17794 ft | 373 kts | 284° |
| 2026-04-24 10:06 | 60.77020 | 24.04663 | 17831 ft | 374 kts | 285° |
| 2026-04-24 10:06 | 60.77342 | 23.99360 | 17824 ft | 374 kts | 285° |
| 2026-04-24 10:07 | 60.77661 | 23.94098 | 17827 ft | 374 kts | 284° |
| 2026-04-24 10:07 | 60.77977 | 23.88845 | 17834 ft | 374 kts | 284° |
| 2026-04-24 10:07 | 60.78297 | 23.83500 | 17832 ft | 374 kts | 284° |
| 2026-04-24 10:07 | 60.78611 | 23.78201 | 17844 ft | 375 kts | 284° |
| 2026-04-24 10:08 | 60.78927 | 23.72872 | 18165 ft | 376 kts | 284° |
| 2026-04-24 10:08 | 60.79238 | 23.67559 | 18588 ft | 377 kts | 284° |
| 2026-04-24 10:08 | 60.79549 | 23.62212 | 18966 ft | 378 kts | 284° |
| 2026-04-24 10:08 | 60.79861 | 23.56840 | 19327 ft | 380 kts | 284° |
| 2026-04-24 10:09 | 60.80171 | 23.51457 | 19692 ft | 382 kts | 284° |
| 2026-04-24 10:09 | 60.80481 | 23.46042 | 20067 ft | 383 kts | 284° |
| 2026-04-24 10:09 | 60.80788 | 23.40629 | 20411 ft | 385 kts | 284° |
| 2026-04-24 10:09 | 60.81097 | 23.35111 | 20765 ft | 387 kts | 284° |
| 2026-04-24 10:10 | 60.81404 | 23.29610 | 21129 ft | 389 kts | 283° |
| 2026-04-24 10:10 | 60.81707 | 23.24121 | 21457 ft | 391 kts | 283° |
| 2026-04-24 10:10 | 60.82013 | 23.18551 | 21806 ft | 393 kts | 283° |
| 2026-04-24 10:10 | 60.82316 | 23.12964 | 22145 ft | 395 kts | 283° |
| 2026-04-24 10:11 | 60.82618 | 23.07363 | 22487 ft | 397 kts | 283° |
| 2026-04-24 10:11 | 60.82920 | 23.01727 | 22818 ft | 399 kts | 283° |
| 2026-04-24 10:11 | 60.83222 | 22.96048 | 23156 ft | 401 kts | 283° |
| 2026-04-24 10:11 | 60.83521 | 22.90379 | 23476 ft | 403 kts | 283° |
| 2026-04-24 10:12 | 60.83820 | 22.84675 | 23744 ft | 405 kts | 282° |
| 2026-04-24 10:12 | 60.84120 | 22.78893 | 24018 ft | 407 kts | 282° |
| 2026-04-24 10:12 | 60.84415 | 22.73151 | 24294 ft | 409 kts | 282° |
| 2026-04-24 10:12 | 60.84716 | 22.67287 | 24577 ft | 410 kts | 282° |
| 2026-04-24 10:13 | 60.85186 | 22.61549 | 24855 ft | 407 kts | 289° |
| 2026-04-24 10:13 | 60.85962 | 22.56021 | 25128 ft | 406 kts | 293° |
| 2026-04-24 10:13 | 60.86859 | 22.50513 | 25399 ft | 407 kts | 294° |
| 2026-04-24 10:13 | 60.87807 | 22.44988 | 25703 ft | 408 kts | 294° |
| 2026-04-24 10:14 | 60.88767 | 22.39511 | 25993 ft | 410 kts | 295° |
| 2026-04-24 10:14 | 60.89738 | 22.33984 | 26285 ft | 411 kts | 294° |
| 2026-04-24 10:14 | 60.90699 | 22.28480 | 26568 ft | 413 kts | 294° |
| 2026-04-24 10:14 | 60.91672 | 22.22857 | 26863 ft | 415 kts | 294° |
| 2026-04-24 10:15 | 60.92632 | 22.17268 | 27144 ft | 417 kts | 294° |
| 2026-04-24 10:15 | 60.93596 | 22.11621 | 27423 ft | 419 kts | 294° |
| 2026-04-24 10:15 | 60.94561 | 22.05943 | 27697 ft | 421 kts | 294° |
| 2026-04-24 10:15 | 60.95522 | 22.00267 | 28002 ft | 422 kts | 294° |
| 2026-04-24 10:16 | 60.96495 | 21.94504 | 28269 ft | 424 kts | 294° |
| 2026-04-24 10:16 | 60.97463 | 21.88753 | 28543 ft | 426 kts | 293° |
| 2026-04-24 10:16 | 60.98434 | 21.82965 | 28809 ft | 428 kts | 293° |
| 2026-04-24 10:16 | 60.99391 | 21.77245 | 29070 ft | 429 kts | 293° |
| 2026-04-24 10:17 | 61.00376 | 21.71338 | 29322 ft | 431 kts | 293° |
| 2026-04-24 10:17 | 61.01337 | 21.65562 | 29564 ft | 433 kts | 293° |
| 2026-04-24 10:17 | 61.02321 | 21.59629 | 29808 ft | 434 kts | 293° |
| 2026-04-24 10:17 | 61.03292 | 21.53746 | 30041 ft | 436 kts | 293° |
| 2026-04-24 10:18 | 61.04265 | 21.47839 | 30238 ft | 437 kts | 292° |
| 2026-04-24 10:18 | 61.05242 | 21.41883 | 30423 ft | 439 kts | 292° |
| 2026-04-24 10:18 | 61.06220 | 21.35907 | 30604 ft | 440 kts | 292° |
| 2026-04-24 10:18 | 61.07202 | 21.29878 | 30820 ft | 441 kts | 292° |
| 2026-04-24 10:19 | 61.08181 | 21.23857 | 30989 ft | 443 kts | 292° |
| 2026-04-24 10:19 | 61.09119 | 21.18062 | 31189 ft | 443 kts | 292° |
| 2026-04-24 10:19 | 61.10097 | 21.11999 | 31445 ft | 442 kts | 292° |
| 2026-04-24 10:19 | 61.11073 | 21.05930 | 31701 ft | 442 kts | 292° |
| 2026-04-24 10:20 | 61.12040 | 20.99893 | 31925 ft | 442 kts | 292° |
| 2026-04-24 10:20 | 61.13006 | 20.93850 | 32149 ft | 441 kts | 292° |
| 2026-04-24 10:20 | 61.13976 | 20.87755 | 32375 ft | 441 kts | 292° |
| 2026-04-24 10:20 | 61.14925 | 20.81772 | 32693 ft | 439 kts | 292° |
| 2026-04-24 10:21 | 61.15861 | 20.75845 | 33080 ft | 435 kts | 292° |
| 2026-04-24 10:21 | 61.16799 | 20.69883 | 33477 ft | 431 kts | 292° |
| 2026-04-24 10:21 | 61.17726 | 20.63980 | 33744 ft | 430 kts | 292° |
| 2026-04-24 10:22 | 61.19591 | 20.52082 | 33817 ft | 437 kts | 292° |
| 2026-04-24 10:22 | 61.20530 | 20.46049 | 33934 ft | 439 kts | 291° |
| 2026-04-24 10:22 | 61.21470 | 20.39997 | 33950 ft | 443 kts | 291° |
| 2026-04-24 10:23 | 61.23361 | 20.27738 | 33948 ft | 447 kts | 291° |
| 2026-04-24 10:23 | 61.25240 | 20.15440 | 33950 ft | 445 kts | 291° |
| 2026-04-24 10:24 | 61.27092 | 20.03245 | 33955 ft | 446 kts | 291° |
| 2026-04-24 10:24 | 61.28960 | 19.90871 | 33958 ft | 446 kts | 291° |
| 2026-04-24 10:25 | 61.30795 | 19.78618 | 33962 ft | 447 kts | 291° |
| 2026-04-24 10:25 | 61.32634 | 19.66255 | 33962 ft | 447 kts | 291° |
| 2026-04-24 10:26 | 61.34468 | 19.53835 | 33966 ft | 447 kts | 291° |
| 2026-04-24 10:26 | 61.36280 | 19.41476 | 33966 ft | 448 kts | 291° |
| 2026-04-24 10:27 | 61.38309 | 19.29199 | 33971 ft | 446 kts | 295° |
| 2026-04-24 10:27 | 61.40555 | 19.17210 | 33967 ft | 446 kts | 295° |
| 2026-04-24 10:28 | 61.42765 | 19.05162 | 33977 ft | 446 kts | 294° |
| 2026-04-24 10:28 | 61.44918 | 18.93049 | 33968 ft | 446 kts | 294° |
| 2026-04-24 10:29 | 61.46672 | 18.83035 | 33972 ft | 447 kts | 294° |
| 2026-04-24 10:29 | 61.49157 | 18.68753 | 33970 ft | 447 kts | 294° |
| 2026-04-24 10:30 | 61.50949 | 18.58396 | 33977 ft | 447 kts | 293° |
| 2026-04-24 10:30 | 61.53057 | 18.46150 | 33973 ft | 447 kts | 293° |
| 2026-04-24 10:31 | 61.55142 | 18.33960 | 33975 ft | 452 kts | 293° |
| 2026-04-24 10:31 | 61.57271 | 18.21440 | 33984 ft | 458 kts | 293° |
| 2026-04-24 10:32 | 61.59408 | 18.08768 | 33978 ft | 462 kts | 293° |
| 2026-04-24 10:32 | 61.61539 | 17.96043 | 33968 ft | 463 kts | 292° |
| 2026-04-24 10:33 | 61.63665 | 17.83255 | 33975 ft | 464 kts | 292° |
| 2026-04-24 10:33 | 61.65796 | 17.70358 | 33957 ft | 464 kts | 292° |
| 2026-04-24 10:34 | 61.67905 | 17.57495 | 33976 ft | 464 kts | 292° |
| 2026-04-24 10:34 | 61.70004 | 17.44610 | 33964 ft | 465 kts | 292° |
| 2026-04-24 10:35 | 61.72084 | 17.31745 | 33970 ft | 465 kts | 292° |
| 2026-04-24 10:35 | 61.74148 | 17.18895 | 33960 ft | 465 kts | 292° |
| 2026-04-24 10:36 | 61.76219 | 17.05902 | 33969 ft | 465 kts | 292° |
| 2026-04-24 10:36 | 61.78276 | 16.92900 | 33965 ft | 466 kts | 291° |
| 2026-04-24 10:37 | 61.80316 | 16.79913 | 33970 ft | 466 kts | 291° |
| 2026-04-24 10:37 | 61.82340 | 16.66934 | 33978 ft | 466 kts | 291° |
| 2026-04-24 10:38 | 61.84371 | 16.53812 | 33975 ft | 466 kts | 291° |
| 2026-04-24 10:38 | 61.86371 | 16.40794 | 33973 ft | 466 kts | 291° |
| 2026-04-24 10:39 | 61.88361 | 16.27742 | 33981 ft | 466 kts | 291° |
| 2026-04-24 10:39 | 61.90341 | 16.14663 | 33978 ft | 466 kts | 291° |
| 2026-04-24 10:40 | 61.92306 | 16.01575 | 33986 ft | 466 kts | 291° |
| 2026-04-24 10:40 | 61.94267 | 15.88418 | 33981 ft | 466 kts | 291° |
| 2026-04-24 10:41 | 61.96207 | 15.75301 | 33994 ft | 467 kts | 291° |
| 2026-04-24 10:41 | 61.98123 | 15.62249 | 33988 ft | 467 kts | 291° |
| 2026-04-24 10:42 | 62.00068 | 15.48896 | 33994 ft | 467 kts | 290° |
| 2026-04-24 10:42 | 62.01979 | 15.35673 | 33995 ft | 468 kts | 290° |
| 2026-04-24 10:43 | 62.03877 | 15.22435 | 34004 ft | 468 kts | 290° |
| 2026-04-24 10:43 | 62.05762 | 15.09178 | 33989 ft | 468 kts | 290° |
| 2026-04-24 10:44 | 62.07646 | 14.95814 | 33990 ft | 468 kts | 290° |
| 2026-04-24 10:44 | 62.09488 | 14.82650 | 33974 ft | 465 kts | 290° |
| 2026-04-24 10:45 | 62.11317 | 14.69472 | 33974 ft | 464 kts | 290° |
| 2026-04-24 10:45 | 62.13160 | 14.56138 | 34258 ft | 468 kts | 287° |
| 2026-04-24 10:45 | 62.14089 | 14.49394 | 34040 ft | 478 kts | 287° |
| 2026-04-24 10:46 | 62.15002 | 14.42695 | 33973 ft | 483 kts | 287° |
| 2026-04-24 10:46 | 62.16886 | 14.28736 | 33976 ft | 489 kts | 287° |
| 2026-04-24 10:47 | 62.18780 | 14.14608 | 33992 ft | 491 kts | 287° |
| 2026-04-24 10:47 | 62.20637 | 14.00648 | 34003 ft | 491 kts | 287° |
| 2026-04-24 10:48 | 62.22481 | 13.86670 | 34018 ft | 483 kts | 287° |
| 2026-04-24 10:48 | 62.24297 | 13.72777 | 34035 ft | 480 kts | 286° |
| 2026-04-24 10:49 | 62.24915 | 13.68022 | 34035 ft | 481 kts | 286° |